createdAt,value
2022-11-17T00:00:43.400Z,9.42
2022-11-17T00:03:15.577Z,9.40
2022-11-17T00:05:43.617Z,9.34
2022-11-17T00:08:11.054Z,9.27
2022-11-17T00:10:38.556Z,9.15
2022-11-17T00:13:24.055Z,9.35
2022-11-17T00:15:52.094Z,9.42
2022-11-17T00:18:37.604Z,9.32
2022-11-17T00:21:21.749Z,9.37
2022-11-17T00:23:50.690Z,9.41
2022-11-17T00:26:21.041Z,9.50
2022-11-17T00:28:53.297Z,9.40
2022-11-17T00:31:40.961Z,9.55
2022-11-17T00:34:19.235Z,9.56
2022-11-17T00:36:51.814Z,9.63
2022-11-17T00:39:21.660Z,9.58
2022-11-17T00:41:48.936Z,9.55
2022-11-17T00:44:16.741Z,9.21
2022-11-17T00:46:44.475Z,9.60
2022-11-17T00:49:12.232Z,9.68
2022-11-17T00:51:39.892Z,9.60
2022-11-17T00:54:10.523Z,9.69
2022-11-17T00:56:38.008Z,9.68
2022-11-17T00:59:05.765Z,9.71
2022-11-17T01:01:33.148Z,9.77
2022-11-17T01:04:04.428Z,9.93
2022-11-17T01:06:34.700Z,9.96
2022-11-17T01:09:04.955Z,9.94
2022-11-17T01:11:32.649Z,9.78
2022-11-17T01:14:00.880Z,9.90
2022-11-17T01:16:29.512Z,9.96
2022-11-17T01:18:59.917Z,10.02
2022-11-17T01:21:28.584Z,9.98
2022-11-17T01:23:57.223Z,10.03
2022-11-17T01:26:27.352Z,9.95
2022-11-17T01:28:55.926Z,10.04
2022-11-17T01:31:26.397Z,10.05
2022-11-17T01:33:54.393Z,9.98
2022-11-17T01:36:52.800Z,9.95
2022-11-17T01:39:22.728Z,9.96
2022-11-17T01:41:50.136Z,9.85
2022-11-17T01:44:44.294Z,10.01
2022-11-17T01:47:36.277Z,9.99
2022-11-17T01:50:10.353Z,9.90
2022-11-17T01:52:40.742Z,9.78
2022-11-17T01:55:10.525Z,9.77
2022-11-17T01:57:54.630Z,9.75
2022-11-17T02:00:22.120Z,9.85
2022-11-17T02:02:50.280Z,9.95
2022-11-17T02:05:40.558Z,9.79
2022-11-17T02:08:08.883Z,9.80
2022-11-17T02:10:37.761Z,9.83
2022-11-17T02:13:05.707Z,9.73
2022-11-17T02:15:32.967Z,9.61
2022-11-17T02:18:01.483Z,9.58
2022-11-17T02:20:53.885Z,9.63
2022-11-17T02:23:51.505Z,9.68
2022-11-17T02:26:52.611Z,9.65
2022-11-17T02:29:48.312Z,9.65
2022-11-17T02:32:31.067Z,9.73
2022-11-17T02:35:54.257Z,9.63
2022-11-17T02:38:46.049Z,9.58
2022-11-17T02:41:23.778Z,9.51
2022-11-17T02:44:30.331Z,9.60
2022-11-17T02:47:09.348Z,9.85
2022-11-17T02:49:40.375Z,10.17
2022-11-17T02:52:09.844Z,10.53
2022-11-17T02:54:37.250Z,10.76
2022-11-17T02:57:04.840Z,10.87
2022-11-17T02:59:41.866Z,11.02
2022-11-17T03:02:48.122Z,11.20
2022-11-17T03:05:39.941Z,11.42
2022-11-17T03:08:32.983Z,11.53
2022-11-17T03:11:03.887Z,11.55
2022-11-17T03:13:43.590Z,11.58
2022-11-17T03:16:38.030Z,11.47
2022-11-17T03:19:16.293Z,11.33
2022-11-17T03:22:08.721Z,11.29
2022-11-17T03:24:58.733Z,10.98
2022-11-17T03:27:30.622Z,11.05
2022-11-17T03:30:02.460Z,11.26
2022-11-17T03:32:36.698Z,11.27
2022-11-17T03:35:10.460Z,11.55
2022-11-17T03:37:42.322Z,11.49
2022-11-17T03:40:13.828Z,11.64
2022-11-17T03:42:47.026Z,11.61
2022-11-17T03:45:50.634Z,11.90
2022-11-17T03:48:30.374Z,11.88
2022-11-17T03:51:18.375Z,12.09
2022-11-17T03:53:47.099Z,12.11
2022-11-17T03:56:29.640Z,12.17
2022-11-17T03:59:02.323Z,12.06
2022-11-17T04:01:32.647Z,12.00
2022-11-17T04:04:00.801Z,11.92
2022-11-17T04:06:28.073Z,11.92
2022-11-17T04:08:56.605Z,11.77
2022-11-17T04:11:42.184Z,11.69
2022-11-17T04:14:29.614Z,11.41
2022-11-17T04:16:56.968Z,11.69
2022-11-17T04:19:26.205Z,11.61
2022-11-17T04:21:53.482Z,11.50
2022-11-17T04:24:20.668Z,11.61
2022-11-17T04:27:06.620Z,11.53
2022-11-17T04:29:35.195Z,11.38
2022-11-17T04:32:02.415Z,11.14
2022-11-17T04:34:29.729Z,11.11
2022-11-17T04:36:57.106Z,11.25
2022-11-17T04:39:24.420Z,11.33
2022-11-17T04:41:54.439Z,11.28
2022-11-17T04:44:27.678Z,11.16
2022-11-17T04:46:56.308Z,11.26
2022-11-17T04:49:25.428Z,11.15
2022-11-17T04:51:53.906Z,11.07
2022-11-17T04:54:24.835Z,11.09
2022-11-17T04:56:53.588Z,11.07
2022-11-17T04:59:23.403Z,11.06
2022-11-17T05:01:50.794Z,11.10
2022-11-17T05:04:40.311Z,11.24
2022-11-17T05:07:09.224Z,11.29
2022-11-17T05:09:36.895Z,11.52
2022-11-17T05:12:22.625Z,11.73
2022-11-17T05:14:50.698Z,11.81
2022-11-17T05:17:18.628Z,11.96
2022-11-17T05:19:47.570Z,12.05
2022-11-17T05:22:40.068Z,12.19
2022-11-17T05:25:08.325Z,12.07
2022-11-17T05:27:36.164Z,12.04
2022-11-17T05:30:07.313Z,12.05
2022-11-17T05:32:35.394Z,12.22
2022-11-17T05:35:02.599Z,12.34
2022-11-17T05:37:30.275Z,12.51
2022-11-17T05:39:57.684Z,12.55
2022-11-17T05:42:25.064Z,12.70
2022-11-17T05:44:52.357Z,12.54
2022-11-17T05:47:20.127Z,12.40
2022-11-17T05:49:50.416Z,12.25
2022-11-17T05:52:17.665Z,12.30
2022-11-17T05:54:45.117Z,12.07
2022-11-17T05:57:22.072Z,11.93
2022-11-17T05:59:57.143Z,12.28
2022-11-17T06:02:32.265Z,12.32
2022-11-17T06:04:59.603Z,12.16
2022-11-17T06:07:26.985Z,12.14
2022-11-17T06:09:55.223Z,11.90
2022-11-17T06:12:22.485Z,12.04
2022-11-17T06:14:49.845Z,11.86
2022-11-17T06:17:23.304Z,12.32
2022-11-17T06:20:05.709Z,12.58
2022-11-17T06:22:33.774Z,12.80
2022-11-17T06:25:04.609Z,13.11
2022-11-17T06:27:33.536Z,13.30
2022-11-17T06:30:03.828Z,13.34
2022-11-17T06:32:36.924Z,13.28
2022-11-17T06:35:08.164Z,13.37
2022-11-17T06:37:35.734Z,13.39
2022-11-17T06:40:03.453Z,13.41
2022-11-17T06:42:49.835Z,13.35
2022-11-17T06:45:17.495Z,13.50
2022-11-17T06:47:46.312Z,13.65
2022-11-17T06:50:15.329Z,13.81
2022-11-17T06:52:42.516Z,13.95
2022-11-17T06:55:10.435Z,13.97
2022-11-17T06:57:37.787Z,14.07
2022-11-17T07:00:06.611Z,13.81
2022-11-17T07:02:33.875Z,13.86
2022-11-17T07:05:01.273Z,14.01
2022-11-17T07:07:28.927Z,14.18
2022-11-17T07:10:00.731Z,14.20
2022-11-17T07:12:30.378Z,14.15
2022-11-17T07:14:57.461Z,14.17
2022-11-17T07:17:24.748Z,14.05
2022-11-17T07:19:53.718Z,14.16
2022-11-17T07:22:20.884Z,14.06
2022-11-17T07:24:47.949Z,14.17
2022-11-17T07:27:15.073Z,14.14
2022-11-17T07:29:42.204Z,13.99
2022-11-17T07:32:13.857Z,14.04
2022-11-17T07:34:41.548Z,14.11
2022-11-17T07:37:08.998Z,14.17
2022-11-17T07:39:36.124Z,14.11
2022-11-17T07:42:03.584Z,14.11
2022-11-17T07:44:31.866Z,14.14
2022-11-17T07:46:59.059Z,14.29
2022-11-17T07:49:27.332Z,14.33
2022-11-17T07:51:56.869Z,14.43
2022-11-17T07:54:24.151Z,14.28
2022-11-17T07:56:51.360Z,14.37
2022-11-17T07:59:21.405Z,14.41
2022-11-17T08:01:49.047Z,14.55
2022-11-17T08:04:16.403Z,14.55
2022-11-17T08:06:43.508Z,14.64
2022-11-17T08:09:13.649Z,14.75
2022-11-17T08:11:41.152Z,14.78
2022-11-17T08:14:08.408Z,14.81
2022-11-17T08:16:35.944Z,14.82
2022-11-17T08:19:06.220Z,14.89
2022-11-17T08:21:33.513Z,14.89
2022-11-17T08:24:00.652Z,14.80
2022-11-17T08:26:27.988Z,14.88
2022-11-17T08:28:58.899Z,14.81
2022-11-17T08:31:27.101Z,14.87
2022-11-17T08:33:54.392Z,14.93
2022-11-17T08:36:21.737Z,14.91
2022-11-17T08:38:49.290Z,14.96
2022-11-17T08:41:16.963Z,15.09
2022-11-17T08:43:44.068Z,15.14
2022-11-17T08:46:14.356Z,15.27
2022-11-17T08:48:41.640Z,15.32
2022-11-17T08:51:10.549Z,15.41
2022-11-17T08:53:37.781Z,15.50
2022-11-17T08:56:10.177Z,15.39
2022-11-17T08:58:44.017Z,15.55
2022-11-17T09:01:16.614Z,15.52
2022-11-17T09:03:47.409Z,15.57
2022-11-17T09:06:16.623Z,15.64
2022-11-17T09:08:46.827Z,15.51
2022-11-17T09:11:15.143Z,15.66
2022-11-17T09:13:42.581Z,15.75
2022-11-17T09:16:12.038Z,15.71
2022-11-17T09:18:40.341Z,15.81
2022-11-17T09:21:11.623Z,15.81
2022-11-17T09:23:39.460Z,15.82
2022-11-17T09:26:13.610Z,15.65
2022-11-17T09:28:45.951Z,15.67
2022-11-17T09:31:15.736Z,15.69
2022-11-17T09:33:44.195Z,15.74
2022-11-17T09:36:14.079Z,15.67
2022-11-17T09:38:42.290Z,15.75
2022-11-17T09:41:15.758Z,15.75
2022-11-17T09:43:58.766Z,15.75
2022-11-17T09:46:45.701Z,15.69
2022-11-17T09:49:22.346Z,15.67
2022-11-17T09:51:51.098Z,15.63
2022-11-17T09:54:30.464Z,15.81
2022-11-17T09:56:59.810Z,15.80
2022-11-17T09:59:29.248Z,15.87
2022-11-17T10:01:56.564Z,15.86
2022-11-17T10:04:26.961Z,15.85
2022-11-17T10:06:54.649Z,15.80
2022-11-17T10:09:36.535Z,15.69
2022-11-17T10:12:18.508Z,15.64
2022-11-17T10:14:49.119Z,15.53
2022-11-17T10:17:18.334Z,15.41
2022-11-17T10:19:46.006Z,15.42
2022-11-17T10:22:52.636Z,15.27
2022-11-17T10:25:39.554Z,15.30
2022-11-17T10:28:08.795Z,15.30
2022-11-17T10:30:36.743Z,15.39
2022-11-17T10:33:04.776Z,15.36
2022-11-17T10:35:35.487Z,15.38
2022-11-17T10:38:17.522Z,15.49
2022-11-17T10:40:45.519Z,15.52
2022-11-17T10:43:12.834Z,15.52
2022-11-17T10:45:51.204Z,15.52
2022-11-17T10:48:36.324Z,15.52
2022-11-17T10:51:13.208Z,15.63
2022-11-17T10:53:46.243Z,15.51
2022-11-17T10:56:21.802Z,15.37
2022-11-17T10:59:03.918Z,15.57
2022-11-17T11:01:39.423Z,15.39
2022-11-17T11:04:28.419Z,15.23
2022-11-17T11:07:20.180Z,15.08
2022-11-17T11:09:59.986Z,14.91
2022-11-17T11:12:48.745Z,14.93
2022-11-17T11:15:20.990Z,14.76
2022-11-17T11:17:48.337Z,14.51
2022-11-17T11:20:18.636Z,14.48
2022-11-17T11:23:09.912Z,14.54
2022-11-17T11:25:51.735Z,14.49
2022-11-17T11:28:48.136Z,14.60
2022-11-17T11:31:42.443Z,14.61
2022-11-17T11:34:28.679Z,14.78
2022-11-17T11:37:16.684Z,14.95
2022-11-17T11:39:59.199Z,14.95
2022-11-17T11:42:57.161Z,15.00
2022-11-17T11:45:33.430Z,14.99
2022-11-17T11:48:28.403Z,14.79
2022-11-17T11:51:05.643Z,14.93
2022-11-17T11:53:38.628Z,14.97
2022-11-17T11:56:15.149Z,14.95
2022-11-17T11:59:10.446Z,14.99
2022-11-17T12:01:47.988Z,14.91
2022-11-17T12:04:46.293Z,14.89
2022-11-17T12:07:19.807Z,14.76
2022-11-17T12:10:05.581Z,14.59
2022-11-17T12:12:39.501Z,14.14
2022-11-17T12:15:06.581Z,14.14
2022-11-17T12:17:35.680Z,14.26
2022-11-17T12:20:10.732Z,14.29
2022-11-17T12:22:55.507Z,14.41
2022-11-17T12:25:32.004Z,14.44
2022-11-17T12:27:59.297Z,14.52
2022-11-17T12:30:39.181Z,14.69
2022-11-17T12:33:09.833Z,14.66
2022-11-17T12:35:41.609Z,14.55
2022-11-17T12:38:17.847Z,14.55
2022-11-17T12:40:52.405Z,14.37
2022-11-17T12:43:22.689Z,14.36
2022-11-17T12:45:52.935Z,14.50
2022-11-17T12:48:34.392Z,14.54
2022-11-17T12:51:22.439Z,14.50
2022-11-17T12:54:28.569Z,14.60
2022-11-17T12:57:16.861Z,14.58
2022-11-17T13:00:24.807Z,14.60
2022-11-17T13:03:12.178Z,14.51
2022-11-17T13:05:39.398Z,14.34
2022-11-17T13:08:09.812Z,14.31
2022-11-17T13:10:37.035Z,14.35
2022-11-17T13:13:18.647Z,14.39
2022-11-17T13:15:53.889Z,14.37
2022-11-17T13:18:28.290Z,14.46
2022-11-17T13:20:56.235Z,14.34
2022-11-17T13:23:32.144Z,14.53
2022-11-17T13:26:26.612Z,14.63
2022-11-17T13:29:14.494Z,14.73
2022-11-17T13:31:41.832Z,14.49
2022-11-17T13:34:21.438Z,14.50
2022-11-17T13:37:01.696Z,14.49
2022-11-17T13:39:29.209Z,14.32
2022-11-17T13:41:57.515Z,14.10
2022-11-17T13:44:27.973Z,14.23
2022-11-17T13:46:56.337Z,14.26
2022-11-17T13:49:38.233Z,14.23
2022-11-17T13:52:13.042Z,13.96
2022-11-17T13:54:46.416Z,13.89
2022-11-17T13:57:25.970Z,14.05
2022-11-17T13:59:55.203Z,14.02
2022-11-17T14:02:25.050Z,13.87
2022-11-17T14:05:11.249Z,13.97
2022-11-17T14:07:39.603Z,13.97
2022-11-17T14:10:23.604Z,13.96
2022-11-17T14:13:14.687Z,14.11
2022-11-17T14:15:43.142Z,14.24
2022-11-17T14:18:46.649Z,14.29
2022-11-17T14:21:17.871Z,14.22
2022-11-17T14:23:46.202Z,14.16
2022-11-17T14:26:22.458Z,14.09
2022-11-17T14:28:51.105Z,14.00
2022-11-17T14:31:19.458Z,13.93
2022-11-17T14:33:47.055Z,13.84
2022-11-17T14:36:16.868Z,13.89
2022-11-17T14:38:48.374Z,13.83
2022-11-17T14:41:17.871Z,13.84
2022-11-17T14:43:45.239Z,13.76
2022-11-17T14:46:21.889Z,13.80
2022-11-17T14:48:49.530Z,13.64
2022-11-17T14:51:17.142Z,13.48
2022-11-17T14:53:46.191Z,13.20
2022-11-17T14:56:16.700Z,13.20
2022-11-17T14:58:44.287Z,13.29
2022-11-17T15:01:17.778Z,13.20
2022-11-17T15:03:45.762Z,13.21
2022-11-17T15:06:19.481Z,13.14
2022-11-17T15:08:48.808Z,13.31
2022-11-17T15:11:18.339Z,13.18
2022-11-17T15:13:46.078Z,13.18
2022-11-17T15:16:13.792Z,13.30
2022-11-17T15:18:41.017Z,13.40
2022-11-17T15:21:10.388Z,13.32
2022-11-17T15:23:39.180Z,13.27
2022-11-17T15:26:08.438Z,13.07
2022-11-17T15:28:35.872Z,12.74
2022-11-17T15:31:17.001Z,12.74
2022-11-17T15:33:46.843Z,12.49
2022-11-17T15:36:17.066Z,12.34
2022-11-17T15:38:45.275Z,12.30
2022-11-17T15:41:13.768Z,12.55
2022-11-17T15:43:43.872Z,12.65
2022-11-17T15:46:20.812Z,12.66
2022-11-17T15:48:52.296Z,12.71
2022-11-17T15:51:22.623Z,12.57
2022-11-17T15:53:51.690Z,12.41
2022-11-17T15:56:21.885Z,12.22
2022-11-17T15:58:54.612Z,12.03
2022-11-17T16:01:27.995Z,11.89
2022-11-17T16:04:01.560Z,11.83
2022-11-17T16:06:30.528Z,11.75
2022-11-17T16:08:58.179Z,11.61
2022-11-17T16:11:27.313Z,11.46
2022-11-17T16:13:58.981Z,11.36
2022-11-17T16:16:29.178Z,11.19
2022-11-17T16:18:57.305Z,11.17
2022-11-17T16:21:24.713Z,11.14
2022-11-17T16:23:55.112Z,11.15
2022-11-17T16:26:24.541Z,11.27
2022-11-17T16:29:04.299Z,11.23
2022-11-17T16:31:33.859Z,11.18
2022-11-17T16:34:06.426Z,11.17
2022-11-17T16:36:37.529Z,11.13
2022-11-17T16:39:07.617Z,11.13
2022-11-17T16:41:37.465Z,11.18
2022-11-17T16:44:17.780Z,11.23
2022-11-17T16:46:47.697Z,11.31
2022-11-17T16:49:17.227Z,11.49
2022-11-17T16:51:52.818Z,11.68
2022-11-17T16:54:21.906Z,11.80
2022-11-17T16:56:49.416Z,11.99
2022-11-17T16:59:17.353Z,12.05
2022-11-17T17:01:44.737Z,11.92
2022-11-17T17:04:13.102Z,12.05
2022-11-17T17:06:43.070Z,12.15
2022-11-17T17:09:13.162Z,12.22
2022-11-17T17:11:40.829Z,12.36
2022-11-17T17:14:11.603Z,12.48
2022-11-17T17:16:40.116Z,12.60
2022-11-17T17:19:10.439Z,12.88
2022-11-17T17:21:39.220Z,13.10
2022-11-17T17:24:07.489Z,13.33
2022-11-17T17:26:36.553Z,13.63
2022-11-17T17:29:06.113Z,13.84
2022-11-17T17:31:37.882Z,13.87
2022-11-17T17:34:06.646Z,14.09
2022-11-17T17:36:35.344Z,14.24
2022-11-17T17:39:03.213Z,14.37
2022-11-17T17:41:40.551Z,14.52
2022-11-17T17:44:13.619Z,14.65
2022-11-17T17:46:41.119Z,14.69
2022-11-17T17:49:09.363Z,14.82
2022-11-17T17:51:40.212Z,14.94
2022-11-17T17:54:08.009Z,15.01
2022-11-17T17:56:35.643Z,15.08
2022-11-17T17:59:04.996Z,15.19
2022-11-17T18:01:34.236Z,15.17
2022-11-17T18:04:05.250Z,15.25
2022-11-17T18:06:42.474Z,15.39
2022-11-17T18:09:11.205Z,15.39
2022-11-17T18:11:45.989Z,15.49
2022-11-17T18:14:15.601Z,15.53
2022-11-17T18:16:44.814Z,15.56
2022-11-17T18:19:15.952Z,15.64
2022-11-17T18:21:43.912Z,15.63
2022-11-17T18:24:12.873Z,15.69
2022-11-17T18:26:41.647Z,15.72
2022-11-17T18:29:13.852Z,15.87
2022-11-17T18:31:41.640Z,15.89
2022-11-17T18:34:15.237Z,15.99
2022-11-17T18:36:43.036Z,16.04
2022-11-17T18:39:11.002Z,16.06
2022-11-17T18:41:38.473Z,16.09
2022-11-17T18:44:06.162Z,16.19
2022-11-17T18:46:34.139Z,16.23
2022-11-17T18:49:01.710Z,16.18
2022-11-17T18:51:31.040Z,16.29
2022-11-17T18:54:01.243Z,16.33
2022-11-17T18:56:32.813Z,16.32
2022-11-17T18:59:01.699Z,16.36
2022-11-17T19:01:30.823Z,16.39
2022-11-17T19:04:01.188Z,16.42
2022-11-17T19:06:30.712Z,16.45
2022-11-17T19:09:00.021Z,16.43
2022-11-17T19:11:30.245Z,16.43
2022-11-17T19:13:59.211Z,16.45
2022-11-17T19:16:27.328Z,16.50
2022-11-17T19:18:56.022Z,16.55
2022-11-17T19:21:27.495Z,16.55
2022-11-17T19:23:58.346Z,16.63
2022-11-17T19:26:31.853Z,16.66
2022-11-17T19:29:14.322Z,16.70
2022-11-17T19:31:45.068Z,16.68
2022-11-17T19:34:12.526Z,16.76
2022-11-17T19:36:39.938Z,16.77
2022-11-17T19:39:07.441Z,16.74
2022-11-17T19:41:40.034Z,16.80
2022-11-17T19:44:08.989Z,16.74
2022-11-17T19:46:36.585Z,16.70
2022-11-17T19:49:06.030Z,16.76
2022-11-17T19:51:38.504Z,16.76
2022-11-17T19:54:14.650Z,16.68
2022-11-17T19:56:42.161Z,16.75
2022-11-17T19:59:15.566Z,16.74
2022-11-17T20:01:43.594Z,16.79
2022-11-17T20:04:10.916Z,16.72
2022-11-17T20:06:39.800Z,16.85
2022-11-17T20:09:13.677Z,16.91
2022-11-17T20:11:42.252Z,16.88
2022-11-17T20:14:10.266Z,16.93
2022-11-17T20:16:38.977Z,16.91
2022-11-17T20:19:06.654Z,16.95
2022-11-17T20:21:34.985Z,16.88
2022-11-17T20:24:02.911Z,16.94
2022-11-17T20:26:36.034Z,16.92
2022-11-17T20:29:03.549Z,16.96
2022-11-17T20:31:33.780Z,16.91
2022-11-17T20:34:02.664Z,16.97
2022-11-17T20:36:32.275Z,16.98
2022-11-17T20:39:02.284Z,16.93
2022-11-17T20:41:30.511Z,16.82
2022-11-17T20:43:59.635Z,16.92
2022-11-17T20:46:27.196Z,16.93
2022-11-17T20:48:54.919Z,16.94
2022-11-17T20:51:23.994Z,17.00
2022-11-17T20:53:51.853Z,17.00
2022-11-17T20:56:20.081Z,16.95
2022-11-17T20:58:47.663Z,16.99
2022-11-17T21:01:20.114Z,16.99
2022-11-17T21:03:47.918Z,16.95
2022-11-17T21:06:16.498Z,17.03
2022-11-17T21:08:45.382Z,17.02
2022-11-17T21:11:36.719Z,16.93
2022-11-17T21:14:05.904Z,16.99
2022-11-17T21:16:34.775Z,17.07
2022-11-17T21:19:02.248Z,16.98
2022-11-17T21:21:30.479Z,17.07
2022-11-17T21:23:57.872Z,17.08
2022-11-17T21:26:25.244Z,17.08
2022-11-17T21:28:52.693Z,17.03
2022-11-17T21:31:22.529Z,17.05
2022-11-17T21:33:53.951Z,17.02
2022-11-17T21:36:23.080Z,17.15
2022-11-17T21:38:51.172Z,17.02
2022-11-17T21:41:26.603Z,17.10
2022-11-17T21:43:55.198Z,17.13
2022-11-17T21:46:26.439Z,17.07
2022-11-17T21:48:55.956Z,17.17
2022-11-17T21:51:26.287Z,17.09
2022-11-17T21:53:56.072Z,17.14
2022-11-17T21:56:27.138Z,17.15
2022-11-17T21:58:58.886Z,17.14
2022-11-17T22:01:26.477Z,17.05
2022-11-17T22:03:53.701Z,17.03
2022-11-17T22:06:23.312Z,17.08
2022-11-17T22:08:51.431Z,17.05
2022-11-17T22:11:37.016Z,17.05
2022-11-17T22:14:12.025Z,17.05
2022-11-17T22:16:42.137Z,17.01
2022-11-17T22:19:10.614Z,16.99
2022-11-17T22:21:39.010Z,17.00
2022-11-17T22:24:07.954Z,16.93
2022-11-17T22:26:38.385Z,16.95
2022-11-17T22:29:08.948Z,16.95
2022-11-17T22:31:36.052Z,16.87
2022-11-17T22:34:03.883Z,16.81
2022-11-17T22:36:31.343Z,16.82
2022-11-17T22:38:58.593Z,16.83
2022-11-17T22:41:26.611Z,16.85
2022-11-17T22:43:56.066Z,16.79
2022-11-17T22:46:26.206Z,16.77
2022-11-17T22:48:54.046Z,16.80
2022-11-17T22:51:40.428Z,16.78
2022-11-17T22:54:08.869Z,16.70
2022-11-17T22:56:36.484Z,16.72
2022-11-17T22:59:04.136Z,16.69
2022-11-17T23:01:31.677Z,16.68
2022-11-17T23:03:59.620Z,16.68
2022-11-17T23:06:30.194Z,16.70
2022-11-17T23:09:00.145Z,16.58
2022-11-17T23:11:37.160Z,16.62
2022-11-17T23:14:08.210Z,16.70
2022-11-17T23:16:36.976Z,16.66
2022-11-17T23:19:05.275Z,16.72
2022-11-17T23:21:33.153Z,16.69
2022-11-17T23:24:00.386Z,16.73
2022-11-17T23:26:27.820Z,16.67
2022-11-17T23:28:55.283Z,16.68
2022-11-17T23:31:22.596Z,16.72
2022-11-17T23:33:50.079Z,16.64
2022-11-17T23:36:20.361Z,16.63
2022-11-17T23:38:48.955Z,16.65
2022-11-17T23:41:19.316Z,16.61
2022-11-17T23:43:46.775Z,16.51
2022-11-17T23:46:16.789Z,16.56
2022-11-17T23:48:44.847Z,16.49
2022-11-17T23:51:15.955Z,16.45
2022-11-17T23:53:43.684Z,16.48
2022-11-17T23:56:11.370Z,16.50
2022-11-17T23:58:42.137Z,16.52
